Holy Cross, IA

10:38 AM CST on February 11, 2016 (GMT -0600)
South Lake | | Change Station
CLOSE
Current Station
Personal Weather Station
Location: Farley, IA
Elevation: 1083 ft
Nearby Weather Stations

Elev 1083 ft 42.44 °N, 91.00 °W | Updated 29 seconds ago

Clear
Clear
14.5 °F
Feels Like 14 °F
N
0.0
Wind Variable Wind from South
Gusts 0.0 mph

Today
High -- | Low -- °F
--% Chance of Precip.
Yesterday
High -- | Low -- °F
Precip. -- in
Pressure 30.39 in
Visibility 10.0 miles
Clouds Clear
Windchill 14 °F
Dew Point 4 °F
Humidity 61%
Rainfall 0.00 in
Snow Depth Not available.
7:06 AM 5:30 PM
Waxing Crescent, 13% visible
METAR KDBQ 111553Z 04008KT 10SM CLR M12/M18 A3031 RMK AO2 SLP289 T11171178
Pressure 30.39 in
Visibility 10.0 miles
Clouds Clear
Windchill 14 °F
Dew Point 4 °F
Humidity 61%
Rainfall 0.00 in
Snow Depth Not available.
7:06 AM 5:30 PM
Waxing Crescent, 13% visible
METAR KDBQ 111553Z 04008KT 10SM CLR M12/M18 A3031 RMK AO2 SLP289 T11171178

10-Day Weather Forecast

Almanac

Astronomy

Feb. 11, 2016 Rise Set
Actual Time
Civil Twilight
Nautical Twilight
Astronomical Twilight
Moon
Length of Visible Light
Length of Day
Tomorrow will be .
, % of the Moon is Illuminated

Today's Extremes

State Highs State Lows

Community

WunderPhotos

Upload Photos

1,892,095 photos uploaded!

WunderBlog® & News

Nearby

Air Quality

  Air Quality AQ Index Pollutant
Not available.

Snow Depth

Station Depth Elevation

Earthquake Activity

City Distance Mag. Time & Date
Minimum magnitude displayed is 2.5.

Coastal Water Temperatures

Place Temperature

Stations

Nearby Weather Stations

Station Location Temp. Windchill Dew Point Humidity Wind Precip. Elev Updated Type
                   

Watches & Warnings

There are currently no watches in effect.